Time;durP1;ratioP1;P1;durP2;ratioP2;P2;SDS_P1;SDS_P2;PMS_P1;PMS_P2;Temp;Humidity;BMP_temperature;BMP_pressure;BME280_temperature;BME280_humidity;BME280_pressure;Samples;Min_cycle;Max_cycle;Signal;HPM_P1;HPM_P2
2021/09/01 00:01:10;;;;;;;15.10;9.60;;;;;;;14.25;98.17;101523.81;5022707;28;20284;-77
2021/09/01 00:03:38;;;;;;;13.40;8.70;;;;;;;14.23;98.16;101527.34;5022388;28;20212;-77
2021/09/01 00:06:05;;;;;;;12.43;8.17;;;;;;;14.21;98.17;101522.16;5022352;28;20254;-77
2021/09/01 00:08:32;;;;;;;16.27;8.80;;;;;;;14.15;98.62;101532.72;5022270;28;20216;-75
2021/09/01 00:10:58;;;;;;;12.57;7.77;;;;;;;14.17;98.57;101524.81;5023518;28;20224;-77
2021/09/01 00:13:24;;;;;;;13.63;8.00;;;;;;;14.22;98.21;101526.50;5022138;28;20207;-76
2021/09/01 00:15:51;;;;;;;19.40;9.33;;;;;;;14.22;98.37;101534.38;5022702;28;20274;-74
2021/09/01 00:18:17;;;;;;;19.57;8.17;;;;;;;14.19;98.36;101531.81;5022823;28;20285;-77
2021/09/01 00:20:45;;;;;;;13.30;7.77;;;;;;;14.20;98.50;101527.41;5021990;28;20254;-77
2021/09/01 00:23:14;;;;;;;15.37;8.10;;;;;;;14.17;98.40;101524.81;5025675;28;20211;-75
2021/09/01 00:25:41;;;;;;;17.13;7.67;;;;;;;14.16;98.45;101521.34;5030635;28;20298;-77
2021/09/01 00:28:07;;;;;;;13.20;7.63;;;;;;;14.17;98.39;101528.34;5026291;28;20228;-76
2021/09/01 00:30:34;;;;;;;21.67;9.07;;;;;;;14.24;98.68;101516.81;5025954;28;20700;-77
2021/09/01 00:33:00;;;;;;;15.33;7.17;;;;;;;14.20;98.18;101519.53;5025324;28;20258;-76
2021/09/01 00:35:27;;;;;;;17.43;8.20;;;;;;;14.16;98.17;101537.09;5026056;28;20211;-77
2021/09/01 00:37:54;;;;;;;16.33;8.13;;;;;;;14.22;97.78;101542.25;5030483;28;20754;-77
2021/09/01 00:40:21;;;;;;;10.73;8.10;;;;;;;14.24;97.87;101547.47;5025984;28;20499;-75
2021/09/01 00:42:47;;;;;;;14.00;7.87;;;;;;;14.31;97.86;101543.88;5025895;28;20685;-76
2021/09/01 00:45:13;;;;;;;16.23;7.63;;;;;;;14.19;97.83;101554.56;5025609;28;20219;-77
2021/09/01 00:47:40;;;;;;;17.17;8.80;;;;;;;14.14;98.13;101544.13;5025276;28;20230;-74
2021/09/01 00:50:08;;;;;;;17.13;8.80;;;;;;;14.15;98.17;101540.59;5025836;28;20205;-77
2021/09/01 00:52:35;;;;;;;13.77;9.03;;;;;;;14.10;98.05;101534.56;5028592;28;20974;-77
2021/09/01 00:55:04;;;;;;;15.23;7.77;;;;;;;14.13;97.88;101541.53;5026709;28;20207;-77
2021/09/01 00:57:31;;;;;;;21.17;9.30;;;;;;;14.09;97.51;101538.97;5025439;28;20270;-76
2021/09/01 00:59:57;;;;;;;13.93;8.13;;;;;;;14.11;97.89;101544.16;5025092;28;20277;-74
2021/09/01 01:02:24;;;;;;;13.03;8.53;;;;;;;14.12;97.55;101561.66;5026337;28;20286;-77
2021/09/01 01:04:51;;;;;;;12.27;7.93;;;;;;;14.15;97.03;101566.84;5026665;28;20301;-77
2021/09/01 01:07:17;;;;;;;13.77;7.60;;;;;;;14.17;96.52;101580.88;5026930;28;20656;-75
2021/09/01 01:09:47;;;;;;;15.10;8.70;;;;;;;14.11;96.65;101588.81;5026504;28;20233;-78
2021/09/01 01:12:19;;;;;;;15.40;8.13;;;;;;;14.15;95.94;101601.00;5025870;28;20247;-76
2021/09/01 01:14:47;;;;;;;13.07;7.90;;;;;;;14.17;95.86;101608.84;5026088;28;20212;-76
2021/09/01 01:17:16;;;;;;;10.57;8.73;;;;;;;14.20;96.02;101611.44;5027179;28;20764;-78
2021/09/01 01:19:44;;;;;;;16.13;9.57;;;;;;;14.25;95.56;101626.25;5026890;28;20203;-77
2021/09/01 01:22:11;;;;;;;18.83;9.43;;;;;;;14.27;95.08;101634.09;5026298;28;20227;-77
2021/09/01 01:24:53;;;;;;;26.30;9.47;;;;;;;14.36;94.47;101648.84;5025986;28;20229;-77
2021/09/01 01:27:29;;;;;;;14.13;8.80;;;;;;;14.36;94.82;101651.47;5025748;28;20328;-78
2021/09/01 01:29:57;;;;;;;21.30;9.37;;;;;;;14.34;94.72;101655.88;5028407;28;20222;-77
2021/09/01 01:32:23;;;;;;;20.20;8.70;;;;;;;14.32;94.68;101652.41;5026321;28;20262;-76
2021/09/01 01:34:50;;;;;;;18.57;9.10;;;;;;;14.30;94.50;101663.81;5026390;28;20261;-77
2021/09/01 01:37:16;;;;;;;14.03;8.80;;;;;;;14.31;94.24;101667.31;5025421;28;20208;-76
2021/09/01 01:39:42;;;;;;;18.87;8.63;;;;;;;14.23;95.00;101653.41;5025830;28;20208;-76
2021/09/01 01:42:09;;;;;;;13.17;8.80;;;;;;;14.28;94.39;101664.72;5025690;28;20227;-77
2021/09/01 01:44:36;;;;;;;12.40;8.30;;;;;;;14.22;94.38;101672.69;5025359;28;20212;-77
2021/09/01 01:47:04;;;;;;;14.87;8.47;;;;;;;14.27;94.30;101670.84;5026447;28;20316;-76
2021/09/01 01:49:30;;;;;;;11.07;8.17;;;;;;;14.35;93.72;101684.78;5025230;28;20211;-76
2021/09/01 01:51:57;;;;;;;13.83;8.70;;;;;;;14.29;93.90;101690.97;5026263;28;20228;-76
2021/09/01 01:54:23;;;;;;;19.30;8.57;;;;;;;14.36;93.67;101691.75;5025960;28;20209;-75
2021/09/01 01:56:49;;;;;;;10.83;8.77;;;;;;;14.22;94.40;101678.81;5025618;28;20204;-78
2021/09/01 01:59:16;;;;;;;14.77;9.00;;;;;;;14.10;94.92;101650.09;5025391;28;20262;-77
2021/09/01 02:01:43;;;;;;;16.80;8.70;;;;;;;14.09;95.00;101650.97;5026536;28;20250;-77
2021/09/01 02:04:10;;;;;;;22.47;8.53;;;;;;;14.16;94.76;101651.78;5026705;28;20219;-76
2021/09/01 02:06:36;;;;;;;16.73;9.27;;;;;;;14.14;94.79;101657.03;5025895;28;20241;-76
2021/09/01 02:09:02;;;;;;;18.30;9.90;;;;;;;14.06;94.90;101637.91;5025050;28;20260;-76
2021/09/01 02:11:29;;;;;;;14.83;8.93;;;;;;;14.12;95.00;101636.97;5025108;28;20769;-74
2021/09/01 02:13:55;;;;;;;17.30;8.93;;;;;;;14.06;95.46;101638.75;5023571;28;20243;-77
2021/09/01 02:16:22;;;;;;;16.60;8.90;;;;;;;14.05;95.24;101631.78;5024155;28;20213;-77
2021/09/01 02:18:49;;;;;;;16.53;9.00;;;;;;;14.08;95.45;101634.34;5023955;28;20204;-77
2021/09/01 02:21:16;;;;;;;13.00;9.50;;;;;;;14.05;95.79;101628.28;5024368;28;20232;-76
2021/09/01 02:23:42;;;;;;;16.73;9.73;;;;;;;13.97;95.92;101611.78;5025069;28;20265;-75
2021/09/01 02:26:08;;;;;;;12.77;9.23;;;;;;;13.88;96.43;101602.28;5024353;28;20235;-74
2021/09/01 02:28:35;;;;;;;11.50;9.63;;;;;;;13.88;96.36;101591.78;5024511;28;20724;-77
2021/09/01 02:31:01;;;;;;;14.90;9.33;;;;;;;13.86;96.54;101578.69;5023400;28;20282;-77
2021/09/01 02:33:27;;;;;;;14.73;9.27;;;;;;;13.88;96.83;101581.28;5023304;28;20290;-74
2021/09/01 02:35:55;;;;;;;12.83;9.27;;;;;;;13.86;96.76;101580.44;5023903;28;20744;-76
2021/09/01 02:38:21;;;;;;;11.73;8.87;;;;;;;13.82;97.27;101568.25;5023822;28;20270;-76
2021/09/01 02:40:48;;;;;;;13.40;8.87;;;;;;;13.82;97.09;101569.13;5026112;28;20499;-76
2021/09/01 02:43:14;;;;;;;20.43;9.93;;;;;;;13.83;96.72;101581.31;5028723;28;20750;-76
2021/09/01 02:45:40;;;;;;;16.77;10.07;;;;;;;13.83;97.09;101583.94;5024866;28;20698;-75
2021/09/01 02:48:07;;;;;;;11.50;9.00;;;;;;;13.80;96.81;101586.63;5023224;28;20734;-75
2021/09/01 02:50:33;;;;;;;19.53;9.60;;;;;;;13.82;97.22;101581.38;5023379;28;20242;-77
2021/09/01 02:53:01;;;;;;;13.97;9.17;;;;;;;13.79;97.26;101584.03;5023573;28;20207;-77
2021/09/01 02:55:27;;;;;;;14.13;8.97;;;;;;;13.79;96.84;101586.66;5022901;28;20243;-76
2021/09/01 02:57:53;;;;;;;17.30;9.23;;;;;;;13.78;97.10;101582.31;5030652;28;20467;-76
2021/09/01 03:00:20;;;;;;;14.57;9.53;;;;;;;13.85;96.97;101594.44;5023088;28;20207;-76
2021/09/01 03:02:46;;;;;;;12.20;9.03;;;;;;;13.90;96.40;101604.00;5022950;28;20617;-76
2021/09/01 03:05:12;;;;;;;13.93;8.67;;;;;;;13.89;96.36;101604.91;5023676;28;20270;-77
2021/09/01 03:07:39;;;;;;;12.70;8.13;;;;;;;13.98;95.97;101614.38;5024801;28;20274;-76
2021/09/01 03:10:07;;;;;;;15.37;9.47;;;;;;;13.96;95.77;101629.28;5023286;28;20207;-74
2021/09/01 03:12:34;;;;;;;15.23;9.33;;;;;;;13.95;96.01;101629.31;5022881;28;20212;-76
2021/09/01 03:15:01;;;;;;;13.73;8.70;;;;;;;13.97;95.08;101651.16;5023430;28;20688;-76
2021/09/01 03:17:27;;;;;;;18.37;9.23;;;;;;;14.02;95.14;101662.47;5023033;28;20504;-75
2021/09/01 03:19:53;;;;;;;18.63;9.47;;;;;;;13.98;94.67;101673.91;5023283;28;20261;-77
2021/09/01 03:22:20;;;;;;;17.97;9.27;;;;;;;14.02;94.71;101686.09;5023089;28;20288;-77
2021/09/01 03:24:46;;;;;;;13.33;9.60;;;;;;;14.01;94.13;101686.97;5023828;28;20222;-75
2021/09/01 03:27:14;;;;;;;14.60;10.00;;;;;;;13.92;94.66;101681.88;5023992;28;20309;-76
2021/09/01 03:29:41;;;;;;;11.77;9.30;;;;;;;13.85;95.01;101666.16;5023075;28;20662;-77
2021/09/01 03:32:07;;;;;;;13.43;9.20;;;;;;;13.91;94.61;101665.22;5022081;28;20585;-77
2021/09/01 03:34:34;;;;;;;17.07;10.30;;;;;;;13.97;94.46;101669.53;5022930;28;20749;-74
2021/09/01 03:37:00;;;;;;;18.87;10.07;;;;;;;13.88;94.68;101681.03;5022978;28;20202;-77
2021/09/01 03:39:26;;;;;;;14.47;9.03;;;;;;;13.80;95.23;101659.25;5022843;28;20205;-76
2021/09/01 03:41:53;;;;;;;12.67;9.63;;;;;;;13.77;95.47;101643.53;5022490;28;20282;-74
2021/09/01 03:44:20;;;;;;;22.43;10.40;;;;;;;13.70;95.73;101630.50;5022345;28;20250;-77
2021/09/01 03:46:47;;;;;;;14.13;9.67;;;;;;;13.73;95.56;101628.72;5022462;28;20261;-76
2021/09/01 03:49:17;;;;;;;16.57;10.17;;;;;;;13.69;95.77;101622.63;5022289;28;20290;-76
2021/09/01 03:51:43;;;;;;;14.33;10.17;;;;;;;13.65;96.03;101628.81;5022947;28;20320;-75
2021/09/01 03:54:10;;;;;;;13.40;9.60;;;;;;;13.65;96.02;101627.06;5023544;28;20203;-77
2021/09/01 03:56:36;;;;;;;13.83;9.97;;;;;;;13.73;95.93;101629.59;5029034;28;20206;-78
2021/09/01 03:59:03;;;;;;;13.47;9.87;;;;;;;13.84;95.17;101646.06;5026501;28;20291;-74
2021/09/01 04:01:32;;;;;;;13.43;9.60;;;;;;;13.83;95.19;101662.69;5026338;28;20750;-77
2021/09/01 04:03:59;;;;;;;15.23;9.43;;;;;;;13.90;94.66;101674.84;5026768;28;20281;-78
2021/09/01 04:06:25;;;;;;;21.57;10.20;;;;;;;13.84;94.77;101689.81;5026553;28;20351;-76
2021/09/01 04:08:51;;;;;;;12.97;8.87;;;;;;;13.84;94.77;101676.72;5026025;28;20703;-75
2021/09/01 04:11:18;;;;;;;18.50;9.73;;;;;;;13.80;94.67;101681.13;5026478;28;20281;-76
2021/09/01 04:13:44;;;;;;;12.07;9.50;;;;;;;13.75;95.53;101671.56;5025737;28;20204;-77
2021/09/01 04:16:10;;;;;;;19.90;9.20;;;;;;;13.75;95.34;101656.69;5026588;28;20745;-74
2021/09/01 04:18:38;;;;;;;16.10;9.20;;;;;;;13.71;95.13;101654.97;5026275;28;20236;-77
2021/09/01 04:21:04;;;;;;;17.50;9.67;;;;;;;13.67;95.82;101645.41;5026344;28;20234;-76
2021/09/01 04:23:31;;;;;;;16.97;9.83;;;;;;;13.64;94.89;101653.34;5026884;28;20208;-74
2021/09/01 04:25:58;;;;;;;11.73;8.63;;;;;;;13.65;95.27;101645.41;5034763;28;20297;-77
2021/09/01 04:28:24;;;;;;;13.47;9.37;;;;;;;13.68;95.23;101665.53;5025756;28;20238;-76
2021/09/01 04:30:50;;;;;;;19.43;8.53;;;;;;;13.65;95.41;101668.19;5026038;28;20227;-75
2021/09/01 04:33:17;;;;;;;13.37;8.20;;;;;;;13.64;95.60;101655.97;5025915;28;20296;-77
2021/09/01 04:35:45;;;;;;;15.27;8.63;;;;;;;13.67;95.50;101650.66;5026166;28;20264;-77
2021/09/01 04:38:12;;;;;;;14.73;8.73;;;;;;;13.65;96.06;101641.94;5025761;28;20670;-76
2021/09/01 04:40:38;;;;;;;15.87;9.30;;;;;;;13.63;96.20;101630.59;5025801;28;20590;-74
2021/09/01 04:43:04;;;;;;;14.20;9.00;;;;;;;13.72;96.35;101629.63;5025168;28;20208;-76
2021/09/01 04:45:31;;;;;;;11.73;8.90;;;;;;;13.70;96.40;101632.28;5026169;28;20678;-76
2021/09/01 04:47:57;;;;;;;18.43;10.13;;;;;;;13.69;96.27;101625.25;5025508;28;20223;-75
2021/09/01 04:50:24;;;;;;;15.40;10.23;;;;;;;13.65;96.29;101636.69;5025334;28;20268;-76
2021/09/01 04:52:51;;;;;;;14.67;9.53;;;;;;;13.65;96.28;101620.94;5025633;28;20208;-76
2021/09/01 04:55:18;;;;;;;12.23;9.53;;;;;;;13.66;96.29;101627.94;5026587;28;20593;-75
2021/09/01 04:57:45;;;;;;;14.33;9.47;;;;;;;13.64;96.14;101624.47;5025767;28;20215;-76
2021/09/01 05:00:13;;;;;;;12.37;10.63;;;;;;;13.63;96.14;101639.31;5025395;28;20212;-75
2021/09/01 05:02:39;;;;;;;13.87;9.77;;;;;;;13.65;95.46;101655.91;5025326;28;20306;-77
2021/09/01 05:05:07;;;;;;;10.40;9.20;;;;;;;13.72;95.52;101664.59;5025258;28;21340;-77
2021/09/01 05:07:33;;;;;;;12.47;10.50;;;;;;;13.68;95.72;101666.38;5024870;28;20215;-77
2021/09/01 05:10:01;;;;;;;18.50;9.50;;;;;;;13.64;95.34;101664.69;5025180;28;20771;-78
2021/09/01 05:12:27;;;;;;;13.73;9.47;;;;;;;13.68;96.02;101676.03;5024821;28;20388;-74
2021/09/01 05:14:54;;;;;;;13.20;9.90;;;;;;;13.64;95.59;101677.81;5025756;28;20206;-77
2021/09/01 05:17:21;;;;;;;17.13;9.70;;;;;;;13.68;95.29;101681.28;5025998;28;20277;-77
2021/09/01 05:19:47;;;;;;;13.13;9.87;;;;;;;13.75;95.20;101684.69;5025156;28;20956;-74
2021/09/01 05:22:17;;;;;;;10.27;9.13;;;;;;;13.77;95.14;101698.66;5025303;28;20261;-77
2021/09/01 05:24:53;;;;;;;15.70;9.03;;;;;;;13.78;94.92;101706.50;5026156;28;20258;-77
2021/09/01 05:27:22;;;;;;;13.77;9.47;;;;;;;13.83;95.00;101717.81;5025125;28;20211;-77
2021/09/01 05:29:50;;;;;;;12.83;8.33;;;;;;;13.88;94.72;101730.91;5025237;28;20721;-76
2021/09/01 05:32:19;;;;;;;17.30;8.67;;;;;;;13.94;94.33;101736.06;5029812;28;20624;-76
2021/09/01 05:34:47;;;;;;;13.23;8.37;;;;;;;13.87;94.83;101743.16;5025167;28;20289;-76
2021/09/01 05:37:14;;;;;;;11.20;8.57;;;;;;;13.84;94.40;101748.44;5024231;28;20293;-74
2021/09/01 05:39:42;;;;;;;16.70;8.83;;;;;;;13.90;94.58;101748.34;5025622;28;20273;-76
2021/09/01 05:42:10;;;;;;;17.30;9.07;;;;;;;13.95;94.14;101755.31;5024258;28;20231;-76
2021/09/01 05:44:38;;;;;;;14.40;8.40;;;;;;;13.90;94.23;101753.59;5024988;28;20642;-76
2021/09/01 05:47:05;;;;;;;24.97;9.17;;;;;;;13.88;93.92;101751.91;5024600;28;20260;-76
2021/09/01 05:49:31;;;;;;;12.97;8.87;;;;;;;13.90;94.21;101743.09;5023915;28;20271;-74
2021/09/01 05:51:59;;;;;;;12.17;9.17;;;;;;;13.95;94.54;101744.81;5024907;28;20284;-75
2021/09/01 05:54:25;;;;;;;13.07;8.03;;;;;;;14.03;94.51;101751.72;5025831;28;20212;-76
2021/09/01 05:56:53;;;;;;;15.13;9.17;;;;;;;14.15;93.69;101758.53;5024534;28;20752;-76
2021/09/01 05:59:24;;;;;;;11.07;7.97;;;;;;;14.23;92.85;101784.72;5025957;28;20709;-74
2021/09/01 06:01:58;;;;;;;18.10;9.07;;;;;;;14.18;93.39;101799.69;5025026;28;20417;-74
2021/09/01 06:04:29;;;;;;;15.57;8.33;;;;;;;14.21;92.87;101803.16;5025479;28;20269;-76
2021/09/01 06:06:58;;;;;;;11.47;7.83;;;;;;;14.30;92.96;101799.53;5025841;28;20199;-77
2021/09/01 06:09:25;;;;;;;17.40;8.70;;;;;;;14.25;92.93;101815.34;5028315;28;20712;-77
2021/09/01 06:11:54;;;;;;;9.00;7.80;;;;;;;14.28;92.46;101801.31;5026430;28;20724;-77
2021/09/01 06:14:20;;;;;;;11.10;7.90;;;;;;;14.31;92.75;101806.53;5028735;28;20221;-78
2021/09/01 06:16:47;;;;;;;13.33;9.10;;;;;;;14.28;92.19;101815.28;5028596;28;20237;-77
2021/09/01 06:19:15;;;;;;;9.73;8.40;;;;;;;14.32;92.10;101813.50;5025167;28;20685;-77
2021/09/01 06:21:41;;;;;;;14.00;7.47;;;;;;;14.35;92.33;101818.75;5028590;28;20624;-77
2021/09/01 06:24:08;;;;;;;9.90;7.60;;;;;;;14.39;92.00;101823.06;5031061;28;20253;-77
2021/09/01 06:26:34;;;;;;;16.53;8.30;;;;;;;14.50;91.73;101839.53;5034317;28;20203;-77
2021/09/01 06:29:01;;;;;;;12.50;6.23;;;;;;;14.37;90.44;101885.25;5029950;28;20218;-77
2021/09/01 06:31:32;;;;;;;11.83;7.57;;;;;;;14.40;90.43;101893.09;5031823;28;20287;-75
2021/09/01 06:33:58;;;;;;;11.77;7.27;;;;;;;14.54;89.94;101907.84;5034320;28;20447;-75
2021/09/01 06:36:26;;;;;;;10.90;6.97;;;;;;;14.49;89.94;101918.41;5028446;28;20214;-77
2021/09/01 06:38:52;;;;;;;9.67;6.73;;;;;;;14.42;89.98;101912.31;5029963;28;20229;-77
2021/09/01 06:41:18;;;;;;;11.57;7.57;;;;;;;14.42;90.35;101899.19;5030557;28;20267;-78
2021/09/01 06:43:45;;;;;;;10.77;6.83;;;;;;;14.49;90.26;101898.25;5029714;28;20293;-76
2021/09/01 06:46:11;;;;;;;10.87;7.17;;;;;;;14.39;89.76;101928.16;5033490;28;20261;-76
2021/09/01 06:48:38;;;;;;;9.77;7.20;;;;;;;14.39;90.10;101908.84;5031193;28;20277;-76
2021/09/01 06:51:04;;;;;;;8.90;6.50;;;;;;;14.46;90.14;101911.41;5033081;28;20285;-77
2021/09/01 06:53:32;;;;;;;11.97;7.70;;;;;;;14.56;89.72;101916.56;5034967;28;20212;-77
2021/09/01 06:55:58;;;;;;;9.57;6.70;;;;;;;14.68;89.78;101924.31;5032379;28;20268;-76
2021/09/01 06:58:24;;;;;;;14.23;7.50;;;;;;;14.77;88.97;101957.53;5031789;28;20212;-75
2021/09/01 07:00:51;;;;;;;13.80;7.90;;;;;;;14.77;88.67;101979.44;5032994;28;20227;-76
2021/09/01 07:03:17;;;;;;;14.53;7.07;;;;;;;14.81;88.49;101982.91;5034654;28;20271;-76
2021/09/01 07:05:43;;;;;;;11.47;7.43;;;;;;;14.82;87.61;102003.03;5036773;28;20315;-77
2021/09/01 07:08:15;;;;;;;13.47;7.50;;;;;;;14.84;87.94;102001.25;5033802;28;20235;-76
2021/09/01 07:10:44;;;;;;;9.77;7.10;;;;;;;14.90;88.29;101980.13;5032189;28;20821;-77
2021/09/01 07:13:10;;;;;;;13.97;7.03;;;;;;;14.85;88.24;101974.94;5031476;28;20244;-78
2021/09/01 07:15:37;;;;;;;11.87;6.10;;;;;;;14.90;88.25;101985.41;5032604;28;20300;-78
2021/09/01 07:18:03;;;;;;;9.60;7.07;;;;;;;14.99;87.55;102001.06;5036080;28;20532;-77
2021/09/01 07:20:30;;;;;;;10.07;7.17;;;;;;;14.87;88.47;101988.09;5033084;28;20220;-77
2021/09/01 07:22:57;;;;;;;9.90;6.00;;;;;;;14.84;88.71;101993.34;5034298;28;20585;-77
2021/09/01 07:25:23;;;;;;;16.50;7.63;;;;;;;14.84;87.89;102007.38;5034397;28;20207;-76
2021/09/01 07:27:51;;;;;;;13.23;7.73;;;;;;;15.02;87.74;101998.38;5034349;28;20212;-76
2021/09/01 07:30:18;;;;;;;10.37;6.70;;;;;;;15.18;86.70;102027.13;5032994;28;20237;-76
2021/09/01 07:32:44;;;;;;;7.90;6.97;;;;;;;15.38;85.78;102067.25;5031959;28;20282;-78
2021/09/01 07:35:11;;;;;;;14.07;7.07;;;;;;;15.48;85.09;102110.97;5031594;28;21415;-77
2021/09/01 07:37:43;;;;;;;11.43;7.70;;;;;;;15.43;85.11;102106.66;5035860;28;20203;-75
2021/09/01 07:40:10;;;;;;;12.60;8.17;;;;;;;15.40;84.58;102125.97;5033439;28;20261;-76
2021/09/01 07:42:36;;;;;;;9.17;7.30;;;;;;;15.43;84.35;102127.69;5034429;28;20720;-76
2021/09/01 07:45:05;;;;;;;9.47;7.40;;;;;;;15.46;84.54;102127.63;5029792;28;20219;-77
2021/09/01 07:47:31;;;;;;;12.17;7.87;;;;;;;15.42;85.25;102087.38;5033309;28;20692;-75
2021/09/01 07:49:58;;;;;;;15.47;8.67;;;;;;;15.52;85.31;102084.59;5029698;28;20227;-76
2021/09/01 07:52:24;;;;;;;12.53;7.97;;;;;;;15.55;84.80;102095.94;5032729;28;20231;-77
2021/09/01 07:54:50;;;;;;;13.57;8.03;;;;;;;15.62;84.97;102086.25;5035345;28;20691;-77
2021/09/01 07:57:17;;;;;;;12.47;7.63;;;;;;;15.64;84.23;102126.56;5033301;28;20678;-77
2021/09/01 07:59:43;;;;;;;12.97;7.43;;;;;;;15.61;83.92;102132.72;5035137;28;20616;-78
2021/09/01 08:02:11;;;;;;;10.67;7.30;;;;;;;15.70;83.61;102142.28;5031810;28;20318;-76
2021/09/01 08:04:37;;;;;;;9.37;6.63;;;;;;;15.70;83.03;102160.72;5029894;28;20281;-77
2021/09/01 08:07:03;;;;;;;11.93;7.30;;;;;;;15.73;83.25;102154.56;5031122;28;20210;-77
2021/09/01 08:09:30;;;;;;;9.60;7.87;;;;;;;15.88;82.85;102160.50;5036401;28;20231;-76
2021/09/01 08:11:56;;;;;;;9.53;7.83;;;;;;;15.67;81.80;102209.00;5033500;28;20295;-78
2021/09/01 08:14:22;;;;;;;12.20;7.90;;;;;;;15.61;82.29;102185.38;5035253;28;20278;-76
2021/09/01 08:16:49;;;;;;;14.47;8.60;;;;;;;15.70;82.35;102187.03;5032394;28;20205;-76
2021/09/01 08:19:16;;;;;;;11.70;8.27;;;;;;;15.86;83.09;102162.28;5033685;28;20213;-77
2021/09/01 08:21:43;;;;;;;10.60;8.20;;;;;;;15.92;81.88;102199.97;5029978;28;20231;-76
2021/09/01 08:24:10;;;;;;;14.33;8.73;;;;;;;16.01;81.59;102228.81;5032621;28;20809;-78
2021/09/01 08:26:36;;;;;;;11.27;7.77;;;;;;;16.08;81.30;102218.19;5035523;28;20215;-77
2021/09/01 08:29:02;;;;;;;13.93;8.73;;;;;;;16.13;81.09;102230.41;5031937;28;20346;-78
2021/09/01 08:31:29;;;;;;;10.70;8.27;;;;;;;16.20;81.66;102217.13;5035971;28;20221;-78
2021/09/01 08:33:55;;;;;;;10.67;7.80;;;;;;;16.37;81.78;102216.91;5031816;28;20305;-78
2021/09/01 08:36:23;;;;;;;13.90;9.57;;;;;;;16.31;80.12;102272.31;5032544;28;20214;-76
2021/09/01 08:38:49;;;;;;;10.70;9.60;;;;;;;16.34;80.45;102256.47;5035449;28;20695;-79
2021/09/01 08:41:16;;;;;;;11.90;10.40;;;;;;;16.18;80.95;102261.09;5032665;28;21030;-79
2021/09/01 08:43:43;;;;;;;12.23;10.00;;;;;;;16.05;80.65;102260.38;5034466;28;20212;-78
2021/09/01 08:46:10;;;;;;;11.77;9.00;;;;;;;16.20;80.95;102255.81;5038875;28;20205;-76
2021/09/01 08:48:39;;;;;;;12.93;10.23;;;;;;;16.29;80.03;102279.38;5034178;28;20243;-76
2021/09/01 08:51:06;;;;;;;16.03;9.53;;;;;;;16.27;79.62;102297.88;5036793;28;20254;-76
2021/09/01 08:53:34;;;;;;;15.20;9.73;;;;;;;16.40;80.33;102251.13;5036078;28;20204;-78
2021/09/01 08:56:00;;;;;;;11.97;8.73;;;;;;;16.43;78.69;102317.00;5037680;28;20208;-75
2021/09/01 08:58:27;;;;;;;11.07;9.63;;;;;;;16.47;79.52;102288.78;5035909;28;20628;-76
2021/09/01 09:00:53;;;;;;;10.10;9.13;;;;;;;16.63;79.07;102305.28;5034956;28;20653;-77
2021/09/01 09:03:19;;;;;;;13.70;8.87;;;;;;;16.60;78.77;102307.97;5034231;28;20220;-76
2021/09/01 09:05:47;;;;;;;11.63;8.53;;;;;;;16.37;78.84;102313.53;5035918;28;20635;-76
2021/09/01 09:08:15;;;;;;;11.77;7.93;;;;;;;16.29;79.47;102289.91;5035706;28;21404;-78
2021/09/01 09:10:44;;;;;;;9.17;8.27;;;;;;;16.37;79.63;102290.72;5037397;28;20246;-75
2021/09/01 09:13:13;;;;;;;9.73;8.10;;;;;;;16.57;79.71;102279.88;5032636;28;20205;-76
2021/09/01 09:15:42;;;;;;;9.57;8.40;;;;;;;16.59;78.78;102340.47;5036067;28;20213;-77
2021/09/01 09:18:27;;;;;;;11.60;8.33;;;;;;;16.82;78.51;102327.03;5032927;28;20597;-76
2021/09/01 09:21:08;;;;;;;9.23;7.30;;;;;;;16.75;78.92;102304.22;5037005;28;20695;-75
2021/09/01 09:23:35;;;;;;;10.47;7.47;;;;;;;16.62;78.10;102322.88;5033865;28;20627;-76
2021/09/01 09:26:20;;;;;;;10.63;7.40;;;;;;;16.60;78.18;102342.25;5036319;28;20212;-74
2021/09/01 09:28:46;;;;;;;10.80;8.07;;;;;;;16.65;78.48;102330.75;5035138;28;20585;-75
2021/09/01 09:31:12;;;;;;;8.73;7.03;;;;;;;16.55;77.89;102344.06;5036276;28;20271;-76
2021/09/01 09:33:41;;;;;;;8.20;7.07;;;;;;;16.44;77.86;102342.44;5034194;28;20761;-77
2021/09/01 09:36:08;;;;;;;12.47;8.03;;;;;;;16.57;77.30;102361.63;5035966;28;20506;-77
2021/09/01 09:38:39;;;;;;;12.10;7.47;;;;;;;16.79;77.51;102361.34;5037593;28;20213;-76
2021/09/01 09:41:08;;;;;;;10.67;7.03;;;;;;;16.94;77.37;102362.91;5036680;28;20276;-78
2021/09/01 09:43:36;;;;;;;8.07;7.30;;;;;;;17.02;77.14;102369.78;5035051;28;20229;-77
2021/09/01 09:46:10;;;;;;;10.90;7.70;;;;;;;16.93;76.12;102406.88;5040145;28;20214;-76
2021/09/01 09:48:38;;;;;;;8.23;7.13;;;;;;;16.88;76.81;102377.91;5035678;28;20239;-76
2021/09/01 09:51:06;;;;;;;10.00;7.70;;;;;;;16.90;77.83;102359.44;5032895;28;20232;-76
2021/09/01 09:53:35;;;;;;;9.47;7.07;;;;;;;16.89;76.58;102381.44;5032576;28;20688;-76
2021/09/01 09:56:10;;;;;;;10.57;6.60;;;;;;;16.98;76.28;102389.19;5025402;28;20226;-76
2021/09/01 09:58:39;;;;;;;10.10;7.47;;;;;;;17.07;76.56;102380.31;5028428;28;20719;-75
2021/09/01 10:01:08;;;;;;;8.27;7.37;;;;;;;17.18;75.23;102425.00;5033477;28;21158;-75
2021/09/01 10:03:36;;;;;;;11.37;7.07;;;;;;;17.09;76.06;102402.25;5030235;28;20274;-76
2021/09/01 10:06:04;;;;;;;14.47;8.20;;;;;;;17.11;74.83;102433.91;5029617;28;20243;-76
2021/09/01 10:08:32;;;;;;;8.13;7.03;;;;;;;17.09;75.24;102415.44;5026334;28;20209;-76
2021/09/01 10:11:00;;;;;;;8.60;6.77;;;;;;;17.22;75.51;102411.75;5034559;28;20233;-76
2021/09/01 10:13:29;;;;;;;8.30;7.10;;;;;;;17.40;75.25;102404.41;5028169;28;20297;-75
2021/09/01 10:16:01;;;;;;;8.10;7.17;;;;;;;17.25;75.24;102416.97;5025378;28;20202;-76
2021/09/01 10:18:29;;;;;;;8.73;6.30;;;;;;;17.22;75.59;102393.28;5038866;28;20687;-76
2021/09/01 10:20:57;;;;;;;13.40;8.20;;;;;;;17.12;74.82;102427.72;5030762;28;20292;-76
2021/09/01 10:23:37;;;;;;;9.70;7.10;;;;;;;17.24;76.14;102391.47;5035534;28;20214;-76
2021/09/01 10:26:19;;;;;;;8.13;6.67;;;;;;;17.35;74.89;102416.84;5027864;28;20198;-77
2021/09/01 10:28:47;;;;;;;9.60;6.27;;;;;;;17.61;74.66;102424.34;5026180;28;20211;-77
2021/09/01 10:31:22;;;;;;;8.27;6.93;;;;;;;17.74;73.23;102485.75;5028492;28;20287;-77
2021/09/01 10:33:51;;;;;;;8.97;7.20;;;;;;;17.73;72.75;102497.22;5035483;28;20274;-77
2021/09/01 10:36:48;;;;;;;7.33;6.60;;;;;;;17.94;72.24;102509.22;5031891;28;20314;-75
2021/09/01 10:39:18;;;;;;;7.37;6.70;;;;;;;17.75;70.55;102575.53;5036090;28;20677;-77
2021/09/01 10:41:45;;;;;;;12.47;6.47;;;;;;;17.82;71.13;102545.50;5033826;28;20253;-76
2021/09/01 10:44:22;;;;;;;9.30;6.37;;;;;;;17.74;72.05;102520.06;5036917;28;20224;-77
2021/09/01 10:47:01;;;;;;;7.73;6.97;;;;;;;17.72;70.93;102543.91;5032544;28;20664;-77
2021/09/01 10:49:48;;;;;;;6.90;6.20;;;;;;;17.76;71.81;102524.47;5031571;28;20215;-77
2021/09/01 10:52:15;;;;;;;7.43;6.63;;;;;;;17.62;71.14;102527.31;5030015;28;20715;-76
2021/09/01 10:54:42;;;;;;;7.63;6.20;;;;;;;17.45;72.78;102480.00;5031148;28;20202;-77
2021/09/01 10:57:22;;;;;;;9.67;6.50;;;;;;;17.26;73.35;102452.13;5029230;28;20256;-77
2021/09/01 10:59:49;;;;;;;8.37;6.57;;;;;;;17.63;72.84;102436.59;5037486;28;20208;-76
2021/09/01 11:02:17;;;;;;;9.73;6.73;;;;;;;17.62;72.06;102484.16;5029379;28;20264;-77
2021/09/01 11:04:48;;;;;;;7.20;5.20;;;;;;;17.69;71.03;102514.88;5026252;28;20236;-76
2021/09/01 11:07:20;;;;;;;6.20;5.70;;;;;;;17.30;71.07;102526.88;5025029;28;20213;-76
2021/09/01 11:09:50;;;;;;;9.37;5.97;;;;;;;17.47;73.70;102446.53;5037618;28;20220;-76
2021/09/01 11:12:17;;;;;;;9.60;6.60;;;;;;;17.75;72.74;102458.44;5023794;28;20808;-77
2021/09/01 11:14:47;;;;;;;7.30;5.93;;;;;;;17.95;71.45;102517.13;5026108;28;20761;-76
2021/09/01 11:17:17;;;;;;;9.20;5.90;;;;;;;18.08;69.95;102552.19;5026512;28;20268;-76
2021/09/01 11:19:46;;;;;;;6.47;5.57;;;;;;;18.09;70.62;102538.03;5028971;28;20236;-76
2021/09/01 11:22:14;;;;;;;7.23;6.10;;;;;;;18.24;69.67;102561.59;5029286;28;20278;-76